METAR AND TAF INFORMATION
METAR FOR LFKC
ADDS - METARS form results

(0205 UTC 21 February 2020)
Data provider http://aviationweather.gov/metar/data/
 
METAR text: LFKC 210200Z AUTO 16006KT 9999 FEW030 08/06 Q1024
Conditions at: LFKC (CALVI/ST. CATHER, FR) observed 0200 UTC 21 February 2020
Temperature: 8.0°C (46°F)
Dewpoint: 6.0°C (43°F) [RH = 87%]
Pressure (altimeter): 30.24 inches Hg (1024.0 mb)
Winds: from the SSE (160 degrees) at 7 MPH (6 knots; 3.1 m/s)
Visibility: 6 or more miles (10+ km)
Ceiling: at least 12,000 feet AGL
Clouds: few clouds at 3000 feet AGL
Weather: no significant weather observed at this time

METAR text: LFKC 210130Z AUTO 18007KT 160V230 9999 FEW029 08/06 Q1024
Conditions at: LFKC (CALVI/ST. CATHER, FR) observed 0130 UTC 21 February 2020
Temperature: 8.0°C (46°F)
Dewpoint: 6.0°C (43°F) [RH = 87%]
Pressure (altimeter): 30.24 inches Hg (1024.0 mb)
Winds: from the S (180 degrees) at 8 MPH (7 knots; 3.6 m/s)
Visibility: 6 or more miles (10+ km)
Ceiling: at least 12,000 feet AGL
Clouds: few clouds at 2900 feet AGL
Weather: no significant weather observed at this time

 AIRPORT MAP

 RUNWAY INFORMATION
Runway 18 Runway length 7579 ft Runway width 131 ft
Runway elevation 63 ft Runway displaced threshold 0 ft Runway heading 179
Runway 36 Runway length 7579 ft Runway width 131 ft
Runway elevation 198 ft Runway displaced threshold 656 ft Runway heading 359

 AIRPORT FREQUENCIES
Type ATIS Name CALVI ATIS Frequency 131.175 MHZ
Type GND Name CALVI GND Frequency 121.7 MHZ
Type TWR Name CALVI TWR Frequency 120.8 MHZ

 AIRPORT NEAR NAVIGATION AIDS
Type NDB Name Calvi Frequency 375 KHZ



Powered by Virtual Airlines Manager [v2.6.2]